sensor_id;sensor_type;location;lat;lon;timestamp;P1;durP1;ratioP1;P2;durP2;ratioP2
54897;SDS011;40800;52.704;6.398;2023-02-01T00:01:12;25.35;;;12.48;;
54897;SDS011;40800;52.704;6.398;2023-02-01T00:03:37;20.67;;;11.38;;
54897;SDS011;40800;52.704;6.398;2023-02-01T00:06:03;31.40;;;12.55;;
54897;SDS011;40800;52.704;6.398;2023-02-01T00:08:29;31.98;;;11.57;;
54897;SDS011;40800;52.704;6.398;2023-02-01T00:11:01;24.88;;;11.60;;
54897;SDS011;40800;52.704;6.398;2023-02-01T00:13:32;18.70;;;10.63;;
54897;SDS011;40800;52.704;6.398;2023-02-01T00:16:03;24.92;;;11.70;;
54897;SDS011;40800;52.704;6.398;2023-02-01T00:18:29;27.80;;;11.88;;
54897;SDS011;40800;52.704;6.398;2023-02-01T00:20:54;21.15;;;11.13;;
54897;SDS011;40800;52.704;6.398;2023-02-01T00:23:20;25.90;;;12.55;;
54897;SDS011;40800;52.704;6.398;2023-02-01T00:25:45;18.42;;;11.18;;
54897;SDS011;40800;52.704;6.398;2023-02-01T00:28:11;23.92;;;11.63;;
54897;SDS011;40800;52.704;6.398;2023-02-01T00:30:37;24.67;;;11.52;;
54897;SDS011;40800;52.704;6.398;2023-02-01T00:33:03;21.63;;;11.40;;
54897;SDS011;40800;52.704;6.398;2023-02-01T00:35:29;27.88;;;11.80;;
54897;SDS011;40800;52.704;6.398;2023-02-01T00:37:55;24.85;;;12.40;;
54897;SDS011;40800;52.704;6.398;2023-02-01T00:40:23;23.38;;;11.77;;
54897;SDS011;40800;52.704;6.398;2023-02-01T00:42:49;24.98;;;11.23;;
54897;SDS011;40800;52.704;6.398;2023-02-01T00:45:15;23.58;;;11.32;;
54897;SDS011;40800;52.704;6.398;2023-02-01T00:47:40;24.60;;;11.30;;
54897;SDS011;40800;52.704;6.398;2023-02-01T00:50:06;27.67;;;12.48;;
54897;SDS011;40800;52.704;6.398;2023-02-01T00:52:32;23.55;;;12.95;;
54897;SDS011;40800;52.704;6.398;2023-02-01T00:54:58;23.13;;;11.52;;
54897;SDS011;40800;52.704;6.398;2023-02-01T00:57:23;17.63;;;12.25;;
54897;SDS011;40800;52.704;6.398;2023-02-01T00:59:49;21.88;;;12.15;;
54897;SDS011;40800;52.704;6.398;2023-02-01T01:02:14;29.63;;;13.73;;
54897;SDS011;40800;52.704;6.398;2023-02-01T01:04:40;31.30;;;13.52;;
54897;SDS011;40800;52.704;6.398;2023-02-01T01:07:06;24.77;;;12.90;;
54897;SDS011;40800;52.704;6.398;2023-02-01T01:09:31;20.77;;;13.02;;
54897;SDS011;40800;52.704;6.398;2023-02-01T01:11:57;28.45;;;13.65;;
54897;SDS011;40800;52.704;6.398;2023-02-01T01:14:27;30.85;;;13.15;;
54897;SDS011;40800;52.704;6.398;2023-02-01T01:16:56;26.38;;;13.82;;
54897;SDS011;40800;52.704;6.398;2023-02-01T01:19:22;28.95;;;12.75;;
54897;SDS011;40800;52.704;6.398;2023-02-01T01:21:48;22.27;;;13.30;;
54897;SDS011;40800;52.704;6.398;2023-02-01T01:24:13;28.23;;;12.45;;
54897;SDS011;40800;52.704;6.398;2023-02-01T01:26:39;24.07;;;13.33;;
54897;SDS011;40800;52.704;6.398;2023-02-01T01:29:05;24.25;;;12.57;;
54897;SDS011;40800;52.704;6.398;2023-02-01T01:31:31;28.55;;;13.13;;
54897;SDS011;40800;52.704;6.398;2023-02-01T01:33:57;26.63;;;13.32;;
54897;SDS011;40800;52.704;6.398;2023-02-01T01:36:24;24.98;;;13.32;;
54897;SDS011;40800;52.704;6.398;2023-02-01T01:38:51;26.00;;;12.93;;
54897;SDS011;40800;52.704;6.398;2023-02-01T01:41:18;22.50;;;12.55;;
54897;SDS011;40800;52.704;6.398;2023-02-01T01:43:50;27.85;;;13.50;;
54897;SDS011;40800;52.704;6.398;2023-02-01T01:48:53;28.67;;;13.93;;
54897;SDS011;40800;52.704;6.398;2023-02-01T01:51:42;27.48;;;13.75;;
54897;SDS011;40800;52.704;6.398;2023-02-01T01:56:48;24.27;;;13.48;;
54897;SDS011;40800;52.704;6.398;2023-02-01T01:59:19;30.77;;;13.85;;
54897;SDS011;40800;52.704;6.398;2023-02-01T02:01:48;28.10;;;14.05;;
54897;SDS011;40800;52.704;6.398;2023-02-01T02:04:14;23.75;;;14.07;;
54897;SDS011;40800;52.704;6.398;2023-02-01T02:06:42;28.17;;;15.15;;
54897;SDS011;40800;52.704;6.398;2023-02-01T02:09:10;26.30;;;15.35;;
54897;SDS011;40800;52.704;6.398;2023-02-01T02:11:36;28.30;;;16.45;;
54897;SDS011;40800;52.704;6.398;2023-02-01T02:14:02;20.20;;;15.27;;
54897;SDS011;40800;52.704;6.398;2023-02-01T02:22:41;28.08;;;18.55;;
54897;SDS011;40800;52.704;6.398;2023-02-01T02:28:05;24.40;;;18.08;;
54897;SDS011;40800;52.704;6.398;2023-02-01T02:45:28;30.88;;;20.40;;
54897;SDS011;40800;52.704;6.398;2023-02-01T02:48:22;31.98;;;21.13;;
54897;SDS011;40800;52.704;6.398;2023-02-01T02:51:05;29.80;;;22.20;;
54897;SDS011;40800;52.704;6.398;2023-02-01T02:56:48;33.95;;;22.30;;
54897;SDS011;40800;52.704;6.398;2023-02-01T02:59:33;27.33;;;21.65;;
54897;SDS011;40800;52.704;6.398;2023-02-01T03:02:19;32.05;;;21.88;;
54897;SDS011;40800;52.704;6.398;2023-02-01T03:05:04;31.38;;;22.73;;
54897;SDS011;40800;52.704;6.398;2023-02-01T03:07:51;28.00;;;23.10;;
54897;SDS011;40800;52.704;6.398;2023-02-01T03:10:26;34.45;;;22.15;;
54897;SDS011;40800;52.704;6.398;2023-02-01T03:13:07;32.17;;;21.63;;
54897;SDS011;40800;52.704;6.398;2023-02-01T03:18:28;28.90;;;21.27;;
54897;SDS011;40800;52.704;6.398;2023-02-01T03:21:13;27.42;;;20.65;;
54897;SDS011;40800;52.704;6.398;2023-02-01T03:23:43;27.10;;;20.83;;
54897;SDS011;40800;52.704;6.398;2023-02-01T03:26:10;28.85;;;20.45;;
54897;SDS011;40800;52.704;6.398;2023-02-01T03:28:41;26.20;;;20.50;;
54897;SDS011;40800;52.704;6.398;2023-02-01T03:31:10;27.52;;;20.73;;
54897;SDS011;40800;52.704;6.398;2023-02-01T03:33:36;27.65;;;20.10;;
54897;SDS011;40800;52.704;6.398;2023-02-01T03:36:04;32.47;;;20.33;;
54897;SDS011;40800;52.704;6.398;2023-02-01T03:41:27;32.38;;;20.50;;
54897;SDS011;40800;52.704;6.398;2023-02-01T03:49:13;26.52;;;19.63;;
54897;SDS011;40800;52.704;6.398;2023-02-01T03:51:45;28.48;;;20.33;;
54897;SDS011;40800;52.704;6.398;2023-02-01T03:54:13;29.48;;;20.50;;
54897;SDS011;40800;52.704;6.398;2023-02-01T03:56:42;28.92;;;19.17;;
54897;SDS011;40800;52.704;6.398;2023-02-01T03:59:10;28.95;;;19.02;;
54897;SDS011;40800;52.704;6.398;2023-02-01T04:01:37;29.48;;;19.25;;
54897;SDS011;40800;52.704;6.398;2023-02-01T04:04:03;26.45;;;18.83;;
54897;SDS011;40800;52.704;6.398;2023-02-01T04:06:29;31.25;;;17.77;;
54897;SDS011;40800;52.704;6.398;2023-02-01T04:08:54;26.95;;;18.20;;
54897;SDS011;40800;52.704;6.398;2023-02-01T04:11:20;29.58;;;17.98;;
54897;SDS011;40800;52.704;6.398;2023-02-01T04:13:46;31.00;;;18.80;;
54897;SDS011;40800;52.704;6.398;2023-02-01T04:16:11;26.05;;;19.05;;
54897;SDS011;40800;52.704;6.398;2023-02-01T04:18:37;26.73;;;19.42;;
54897;SDS011;40800;52.704;6.398;2023-02-01T04:21:03;26.80;;;20.35;;
54897;SDS011;40800;52.704;6.398;2023-02-01T04:23:29;26.95;;;19.40;;
54897;SDS011;40800;52.704;6.398;2023-02-01T04:26:02;24.23;;;18.95;;
54897;SDS011;40800;52.704;6.398;2023-02-01T04:28:29;25.13;;;20.05;;
54897;SDS011;40800;52.704;6.398;2023-02-01T04:30:54;28.42;;;19.70;;
54897;SDS011;40800;52.704;6.398;2023-02-01T04:33:20;30.85;;;19.10;;
54897;SDS011;40800;52.704;6.398;2023-02-01T04:35:46;33.92;;;19.90;;
54897;SDS011;40800;52.704;6.398;2023-02-01T04:38:12;27.80;;;19.48;;
54897;SDS011;40800;52.704;6.398;2023-02-01T04:40:38;29.20;;;19.27;;
54897;SDS011;40800;52.704;6.398;2023-02-01T04:43:03;31.60;;;19.85;;
54897;SDS011;40800;52.704;6.398;2023-02-01T04:45:29;32.45;;;20.25;;
54897;SDS011;40800;52.704;6.398;2023-02-01T04:47:55;28.90;;;19.35;;
54897;SDS011;40800;52.704;6.398;2023-02-01T04:50:21;25.80;;;17.48;;
54897;SDS011;40800;52.704;6.398;2023-02-01T04:52:46;27.23;;;19.10;;
54897;SDS011;40800;52.704;6.398;2023-02-01T04:55:12;27.58;;;17.90;;
54897;SDS011;40800;52.704;6.398;2023-02-01T04:57:40;33.78;;;18.38;;
54897;SDS011;40800;52.704;6.398;2023-02-01T05:00:07;26.15;;;17.92;;
54897;SDS011;40800;52.704;6.398;2023-02-01T05:02:33;26.33;;;17.17;;
54897;SDS011;40800;52.704;6.398;2023-02-01T05:05:00;25.15;;;18.10;;
54897;SDS011;40800;52.704;6.398;2023-02-01T05:07:26;23.27;;;16.27;;
54897;SDS011;40800;52.704;6.398;2023-02-01T05:09:51;26.17;;;16.95;;
54897;SDS011;40800;52.704;6.398;2023-02-01T05:12:17;23.38;;;15.75;;
54897;SDS011;40800;52.704;6.398;2023-02-01T05:15:01;21.25;;;16.20;;
54897;SDS011;40800;52.704;6.398;2023-02-01T05:17:26;24.58;;;15.45;;
54897;SDS011;40800;52.704;6.398;2023-02-01T05:19:52;23.15;;;15.60;;
54897;SDS011;40800;52.704;6.398;2023-02-01T05:22:18;24.92;;;16.08;;
54897;SDS011;40800;52.704;6.398;2023-02-01T05:24:43;25.73;;;15.75;;
54897;SDS011;40800;52.704;6.398;2023-02-01T05:27:09;26.90;;;15.45;;
54897;SDS011;40800;52.704;6.398;2023-02-01T05:29:35;21.92;;;16.02;;
54897;SDS011;40800;52.704;6.398;2023-02-01T05:32:00;24.38;;;15.13;;
54897;SDS011;40800;52.704;6.398;2023-02-01T05:34:26;23.75;;;15.55;;
54897;SDS011;40800;52.704;6.398;2023-02-01T05:36:52;19.90;;;15.18;;
54897;SDS011;40800;52.704;6.398;2023-02-01T05:39:17;24.52;;;15.02;;
54897;SDS011;40800;52.704;6.398;2023-02-01T05:41:44;20.73;;;14.07;;
54897;SDS011;40800;52.704;6.398;2023-02-01T05:44:10;19.75;;;13.35;;
54897;SDS011;40800;52.704;6.398;2023-02-01T05:46:35;25.40;;;13.75;;
54897;SDS011;40800;52.704;6.398;2023-02-01T05:49:01;24.17;;;13.32;;
54897;SDS011;40800;52.704;6.398;2023-02-01T05:51:27;22.95;;;13.52;;
54897;SDS011;40800;52.704;6.398;2023-02-01T05:53:53;21.90;;;12.85;;
54897;SDS011;40800;52.704;6.398;2023-02-01T05:56:18;17.67;;;12.80;;
54897;SDS011;40800;52.704;6.398;2023-02-01T05:58:44;20.92;;;13.50;;
54897;SDS011;40800;52.704;6.398;2023-02-01T06:01:09;20.92;;;13.15;;
54897;SDS011;40800;52.704;6.398;2023-02-01T06:03:35;21.23;;;13.27;;
54897;SDS011;40800;52.704;6.398;2023-02-01T06:06:01;22.05;;;12.63;;
54897;SDS011;40800;52.704;6.398;2023-02-01T06:08:27;24.98;;;13.25;;
54897;SDS011;40800;52.704;6.398;2023-02-01T06:10:59;22.87;;;13.57;;
54897;SDS011;40800;52.704;6.398;2023-02-01T06:13:26;20.90;;;13.35;;
54897;SDS011;40800;52.704;6.398;2023-02-01T06:15:52;17.30;;;12.70;;
54897;SDS011;40800;52.704;6.398;2023-02-01T06:18:17;25.30;;;13.40;;
54897;SDS011;40800;52.704;6.398;2023-02-01T06:20:43;20.25;;;13.05;;
54897;SDS011;40800;52.704;6.398;2023-02-01T06:23:09;21.98;;;12.48;;
54897;SDS011;40800;52.704;6.398;2023-02-01T06:25:34;20.58;;;12.73;;
54897;SDS011;40800;52.704;6.398;2023-02-01T06:28:00;20.65;;;12.82;;
54897;SDS011;40800;52.704;6.398;2023-02-01T06:30:26;19.40;;;12.63;;
54897;SDS011;40800;52.704;6.398;2023-02-01T06:32:52;25.73;;;13.60;;
54897;SDS011;40800;52.704;6.398;2023-02-01T06:35:18;23.83;;;12.75;;
54897;SDS011;40800;52.704;6.398;2023-02-01T06:37:44;18.88;;;12.55;;
54897;SDS011;40800;52.704;6.398;2023-02-01T06:40:10;18.30;;;12.15;;
54897;SDS011;40800;52.704;6.398;2023-02-01T06:42:36;23.67;;;12.87;;
54897;SDS011;40800;52.704;6.398;2023-02-01T06:45:02;19.80;;;11.75;;
54897;SDS011;40800;52.704;6.398;2023-02-01T06:47:28;22.30;;;12.10;;
54897;SDS011;40800;52.704;6.398;2023-02-01T06:49:53;20.85;;;11.25;;
54897;SDS011;40800;52.704;6.398;2023-02-01T06:52:19;23.13;;;12.30;;
54897;SDS011;40800;52.704;6.398;2023-02-01T06:54:45;19.23;;;11.60;;
54897;SDS011;40800;52.704;6.398;2023-02-01T06:57:10;21.65;;;12.52;;
54897;SDS011;40800;52.704;6.398;2023-02-01T06:59:36;23.95;;;12.88;;
54897;SDS011;40800;52.704;6.398;2023-02-01T07:02:02;18.55;;;12.13;;
54897;SDS011;40800;52.704;6.398;2023-02-01T07:04:27;21.23;;;12.05;;
54897;SDS011;40800;52.704;6.398;2023-02-01T07:06:53;21.10;;;12.45;;
54897;SDS011;40800;52.704;6.398;2023-02-01T07:09:18;25.33;;;12.80;;
54897;SDS011;40800;52.704;6.398;2023-02-01T07:11:44;25.23;;;12.70;;
54897;SDS011;40800;52.704;6.398;2023-02-01T07:14:10;24.35;;;12.90;;
54897;SDS011;40800;52.704;6.398;2023-02-01T07:16:36;23.55;;;13.27;;
54897;SDS011;40800;52.704;6.398;2023-02-01T07:19:02;20.10;;;12.57;;
54897;SDS011;40800;52.704;6.398;2023-02-01T07:21:27;26.58;;;13.43;;
54897;SDS011;40800;52.704;6.398;2023-02-01T07:23:54;22.40;;;12.48;;
54897;SDS011;40800;52.704;6.398;2023-02-01T07:26:20;20.42;;;12.25;;
54897;SDS011;40800;52.704;6.398;2023-02-01T07:28:45;24.13;;;13.57;;
54897;SDS011;40800;52.704;6.398;2023-02-01T07:31:13;21.80;;;12.87;;
54897;SDS011;40800;52.704;6.398;2023-02-01T07:33:49;18.52;;;12.05;;
54897;SDS011;40800;52.704;6.398;2023-02-01T07:36:20;20.35;;;12.60;;
54897;SDS011;40800;52.704;6.398;2023-02-01T07:38:45;22.90;;;13.13;;
54897;SDS011;40800;52.704;6.398;2023-02-01T07:41:15;24.58;;;13.57;;
54897;SDS011;40800;52.704;6.398;2023-02-01T07:43:41;18.60;;;13.48;;
54897;SDS011;40800;52.704;6.398;2023-02-01T07:46:07;19.77;;;13.32;;
54897;SDS011;40800;52.704;6.398;2023-02-01T07:48:34;23.05;;;14.27;;
54897;SDS011;40800;52.704;6.398;2023-02-01T07:51:01;25.08;;;14.90;;
54897;SDS011;40800;52.704;6.398;2023-02-01T07:53:35;24.35;;;13.95;;
54897;SDS011;40800;52.704;6.398;2023-02-01T07:56:01;16.80;;;13.55;;
54897;SDS011;40800;52.704;6.398;2023-02-01T07:58:28;23.10;;;14.30;;
54897;SDS011;40800;52.704;6.398;2023-02-01T08:00:53;28.92;;;15.38;;
54897;SDS011;40800;52.704;6.398;2023-02-01T08:03:38;27.98;;;15.02;;
54897;SDS011;40800;52.704;6.398;2023-02-01T08:06:04;24.63;;;15.07;;
54897;SDS011;40800;52.704;6.398;2023-02-01T08:08:30;22.70;;;14.85;;
54897;SDS011;40800;52.704;6.398;2023-02-01T08:10:59;24.60;;;14.95;;
54897;SDS011;40800;52.704;6.398;2023-02-01T08:13:25;28.92;;;16.30;;
54897;SDS011;40800;52.704;6.398;2023-02-01T08:15:51;22.13;;;16.55;;
54897;SDS011;40800;52.704;6.398;2023-02-01T08:18:17;26.88;;;16.98;;
54897;SDS011;40800;52.704;6.398;2023-02-01T08:20:43;27.58;;;17.15;;
54897;SDS011;40800;52.704;6.398;2023-02-01T08:23:10;24.88;;;17.73;;
54897;SDS011;40800;52.704;6.398;2023-02-01T08:25:36;24.00;;;17.63;;
54897;SDS011;40800;52.704;6.398;2023-02-01T08:28:04;25.88;;;17.50;;
54897;SDS011;40800;52.704;6.398;2023-02-01T08:30:30;24.25;;;17.35;;
54897;SDS011;40800;52.704;6.398;2023-02-01T08:32:56;21.60;;;17.70;;
54897;SDS011;40800;52.704;6.398;2023-02-01T08:35:22;23.27;;;17.50;;
54897;SDS011;40800;52.704;6.398;2023-02-01T08:37:49;29.55;;;17.77;;
54897;SDS011;40800;52.704;6.398;2023-02-01T08:40:15;30.13;;;18.77;;
54897;SDS011;40800;52.704;6.398;2023-02-01T08:42:41;25.63;;;18.20;;
54897;SDS011;40800;52.704;6.398;2023-02-01T08:45:15;23.83;;;17.05;;
54897;SDS011;40800;52.704;6.398;2023-02-01T08:47:45;25.63;;;17.10;;
54897;SDS011;40800;52.704;6.398;2023-02-01T08:50:15;32.90;;;18.67;;
54897;SDS011;40800;52.704;6.398;2023-02-01T08:52:42;26.23;;;18.42;;
54897;SDS011;40800;52.704;6.398;2023-02-01T08:55:07;27.83;;;18.25;;
54897;SDS011;40800;52.704;6.398;2023-02-01T08:57:34;28.70;;;18.20;;
54897;SDS011;40800;52.704;6.398;2023-02-01T08:59:59;30.10;;;18.45;;
54897;SDS011;40800;52.704;6.398;2023-02-01T09:02:26;26.45;;;18.05;;
54897;SDS011;40800;52.704;6.398;2023-02-01T09:04:52;30.67;;;18.52;;
54897;SDS011;40800;52.704;6.398;2023-02-01T09:07:18;27.63;;;19.20;;
54897;SDS011;40800;52.704;6.398;2023-02-01T09:09:44;26.17;;;18.83;;
54897;SDS011;40800;52.704;6.398;2023-02-01T09:12:10;23.13;;;18.83;;
54897;SDS011;40800;52.704;6.398;2023-02-01T09:14:36;24.42;;;18.02;;
54897;SDS011;40800;52.704;6.398;2023-02-01T09:17:01;29.25;;;18.95;;
54897;SDS011;40800;52.704;6.398;2023-02-01T09:19:28;25.23;;;19.02;;
54897;SDS011;40800;52.704;6.398;2023-02-01T09:21:53;26.95;;;18.83;;
54897;SDS011;40800;52.704;6.398;2023-02-01T09:24:19;26.05;;;19.63;;
54897;SDS011;40800;52.704;6.398;2023-02-01T09:26:44;32.83;;;19.27;;
54897;SDS011;40800;52.704;6.398;2023-02-01T09:29:10;24.08;;;18.70;;
54897;SDS011;40800;52.704;6.398;2023-02-01T09:31:36;26.48;;;18.10;;
54897;SDS011;40800;52.704;6.398;2023-02-01T09:34:03;26.52;;;18.35;;
54897;SDS011;40800;52.704;6.398;2023-02-01T09:36:29;27.50;;;18.50;;
54897;SDS011;40800;52.704;6.398;2023-02-01T09:38:55;21.60;;;17.73;;
54897;SDS011;40800;52.704;6.398;2023-02-01T09:46:37;26.55;;;16.65;;
54897;SDS011;40800;52.704;6.398;2023-02-01T09:49:04;23.75;;;16.20;;
54897;SDS011;40800;52.704;6.398;2023-02-01T09:51:41;21.63;;;16.38;;
54897;SDS011;40800;52.704;6.398;2023-02-01T09:54:17;25.63;;;16.70;;
54897;SDS011;40800;52.704;6.398;2023-02-01T09:56:46;26.05;;;16.98;;
54897;SDS011;40800;52.704;6.398;2023-02-01T10:02:19;24.23;;;16.98;;
54897;SDS011;40800;52.704;6.398;2023-02-01T10:04:48;26.98;;;18.77;;
54897;SDS011;40800;52.704;6.398;2023-02-01T10:12:57;24.83;;;22.30;;
54897;SDS011;40800;52.704;6.398;2023-02-01T10:21:28;27.15;;;24.23;;
54897;SDS011;40800;52.704;6.398;2023-02-01T10:26:50;26.33;;;23.60;;
54897;SDS011;40800;52.704;6.398;2023-02-01T10:29:37;25.70;;;23.17;;
54897;SDS011;40800;52.704;6.398;2023-02-01T10:32:16;25.90;;;23.20;;
54897;SDS011;40800;52.704;6.398;2023-02-01T10:35:31;27.05;;;23.42;;
54897;SDS011;40800;52.704;6.398;2023-02-01T10:37:41;29.58;;;23.30;;
54897;SDS011;40800;52.704;6.398;2023-02-01T10:40:21;25.60;;;22.98;;
54897;SDS011;40800;52.704;6.398;2023-02-01T10:42:49;28.42;;;24.35;;
54897;SDS011;40800;52.704;6.398;2023-02-01T10:45:22;26.42;;;23.60;;
54897;SDS011;40800;52.704;6.398;2023-02-01T10:47:52;27.90;;;24.65;;
54897;SDS011;40800;52.704;6.398;2023-02-01T10:55:55;29.73;;;26.55;;
54897;SDS011;40800;52.704;6.398;2023-02-01T10:58:26;34.70;;;27.73;;
54897;SDS011;40800;52.704;6.398;2023-02-01T11:00:56;29.23;;;26.33;;
54897;SDS011;40800;52.704;6.398;2023-02-01T11:03:31;29.63;;;26.42;;
54897;SDS011;40800;52.704;6.398;2023-02-01T11:06:13;31.70;;;27.70;;
54897;SDS011;40800;52.704;6.398;2023-02-01T11:08:43;30.05;;;27.25;;
54897;SDS011;40800;52.704;6.398;2023-02-01T11:11:13;35.92;;;27.35;;
54897;SDS011;40800;52.704;6.398;2023-02-01T11:13:40;28.27;;;25.30;;
54897;SDS011;40800;52.704;6.398;2023-02-01T11:16:06;29.17;;;25.60;;
54897;SDS011;40800;52.704;6.398;2023-02-01T11:18:37;29.52;;;26.52;;
54897;SDS011;40800;52.704;6.398;2023-02-01T11:21:07;29.77;;;26.45;;
54897;SDS011;40800;52.704;6.398;2023-02-01T11:23:36;33.63;;;27.13;;
54897;SDS011;40800;52.704;6.398;2023-02-01T11:26:11;29.33;;;26.38;;
54897;SDS011;40800;52.704;6.398;2023-02-01T11:28:53;30.15;;;26.80;;
54897;SDS011;40800;52.704;6.398;2023-02-01T11:31:23;29.60;;;26.52;;
54897;SDS011;40800;52.704;6.398;2023-02-01T11:33:54;32.40;;;28.05;;
54897;SDS011;40800;52.704;6.398;2023-02-01T11:36:27;36.33;;;29.25;;
54897;SDS011;40800;52.704;6.398;2023-02-01T11:41:41;32.10;;;28.70;;
54897;SDS011;40800;52.704;6.398;2023-02-01T11:44:22;31.75;;;28.75;;
54897;SDS011;40800;52.704;6.398;2023-02-01T12:04:01;35.42;;;30.73;;
54897;SDS011;40800;52.704;6.398;2023-02-01T12:11:58;34.33;;;29.88;;
54897;SDS011;40800;52.704;6.398;2023-02-01T12:17:31;31.83;;;28.65;;
54897;SDS011;40800;52.704;6.398;2023-02-01T12:28:39;32.97;;;28.92;;
54897;SDS011;40800;52.704;6.398;2023-02-01T12:37:03;32.67;;;29.30;;
54897;SDS011;40800;52.704;6.398;2023-02-01T12:39:59;34.47;;;31.15;;
54897;SDS011;40800;52.704;6.398;2023-02-01T12:43:01;33.28;;;30.08;;
54897;SDS011;40800;52.704;6.398;2023-02-01T12:45:44;42.28;;;38.97;;
54897;SDS011;40800;52.704;6.398;2023-02-01T12:50:59;33.60;;;30.27;;
54897;SDS011;40800;52.704;6.398;2023-02-01T12:56:01;31.75;;;28.92;;
54897;SDS011;40800;52.704;6.398;2023-02-01T12:58:51;33.25;;;29.80;;
54897;SDS011;40800;52.704;6.398;2023-02-01T13:06:41;34.17;;;30.50;;
54897;SDS011;40800;52.704;6.398;2023-02-01T13:11:46;34.60;;;31.10;;
54897;SDS011;40800;52.704;6.398;2023-02-01T13:16:49;32.30;;;28.95;;
54897;SDS011;40800;52.704;6.398;2023-02-01T13:21:59;31.45;;;27.23;;
54897;SDS011;40800;52.704;6.398;2023-02-01T13:27:04;30.45;;;26.98;;
54897;SDS011;40800;52.704;6.398;2023-02-01T13:29:30;32.60;;;29.10;;
54897;SDS011;40800;52.704;6.398;2023-02-01T13:39:48;27.58;;;24.77;;
54897;SDS011;40800;52.704;6.398;2023-02-01T13:42:31;28.80;;;23.67;;
54897;SDS011;40800;52.704;6.398;2023-02-01T13:45:13;28.38;;;22.52;;
54897;SDS011;40800;52.704;6.398;2023-02-01T13:47:43;28.05;;;23.05;;
54897;SDS011;40800;52.704;6.398;2023-02-01T13:52:43;27.70;;;22.58;;
54897;SDS011;40800;52.704;6.398;2023-02-01T13:55:14;25.10;;;22.33;;
54897;SDS011;40800;52.704;6.398;2023-02-01T13:57:50;31.65;;;21.25;;
54897;SDS011;40800;52.704;6.398;2023-02-01T14:00:28;26.70;;;20.27;;
54897;SDS011;40800;52.704;6.398;2023-02-01T14:08:03;28.63;;;21.42;;
54897;SDS011;40800;52.704;6.398;2023-02-01T14:13:35;27.63;;;20.17;;
54897;SDS011;40800;52.704;6.398;2023-02-01T14:23:47;27.85;;;20.42;;
54897;SDS011;40800;52.704;6.398;2023-02-01T14:26:24;26.05;;;19.15;;
54897;SDS011;40800;52.704;6.398;2023-02-01T14:29:08;25.30;;;18.40;;
54897;SDS011;40800;52.704;6.398;2023-02-01T14:34:38;25.10;;;17.73;;
54897;SDS011;40800;52.704;6.398;2023-02-01T14:47:48;25.27;;;16.95;;
54897;SDS011;40800;52.704;6.398;2023-02-01T14:58:04;27.05;;;16.58;;
54897;SDS011;40800;52.704;6.398;2023-02-01T15:00:55;23.65;;;15.23;;
54897;SDS011;40800;52.704;6.398;2023-02-01T15:03:25;29.55;;;16.27;;
54897;SDS011;40800;52.704;6.398;2023-02-01T15:05:57;27.00;;;17.35;;
54897;SDS011;40800;52.704;6.398;2023-02-01T15:08:33;31.20;;;17.00;;
54897;SDS011;40800;52.704;6.398;2023-02-01T15:11:02;21.50;;;15.93;;
54897;SDS011;40800;52.704;6.398;2023-02-01T15:13:31;24.63;;;16.55;;
54897;SDS011;40800;52.704;6.398;2023-02-01T15:18:39;27.23;;;15.88;;
54897;SDS011;40800;52.704;6.398;2023-02-01T15:21:05;24.15;;;15.48;;
54897;SDS011;40800;52.704;6.398;2023-02-01T15:23:39;28.45;;;15.85;;
54897;SDS011;40800;52.704;6.398;2023-02-01T15:26:05;31.33;;;16.45;;
54897;SDS011;40800;52.704;6.398;2023-02-01T15:28:31;21.90;;;14.85;;
54897;SDS011;40800;52.704;6.398;2023-02-01T15:31:00;23.27;;;15.05;;
54897;SDS011;40800;52.704;6.398;2023-02-01T15:33:28;26.45;;;15.27;;
54897;SDS011;40800;52.704;6.398;2023-02-01T15:36:06;27.48;;;15.80;;
54897;SDS011;40800;52.704;6.398;2023-02-01T15:41:09;27.48;;;16.67;;
54897;SDS011;40800;52.704;6.398;2023-02-01T15:46:23;23.55;;;15.68;;
54897;SDS011;40800;52.704;6.398;2023-02-01T15:48:56;21.10;;;14.93;;
54897;SDS011;40800;52.704;6.398;2023-02-01T15:51:22;20.60;;;15.25;;
54897;SDS011;40800;52.704;6.398;2023-02-01T15:53:51;24.27;;;15.52;;
54897;SDS011;40800;52.704;6.398;2023-02-01T15:56:38;20.65;;;14.75;;
54897;SDS011;40800;52.704;6.398;2023-02-01T15:59:12;25.23;;;16.02;;
54897;SDS011;40800;52.704;6.398;2023-02-01T16:01:42;22.52;;;15.30;;
54897;SDS011;40800;52.704;6.398;2023-02-01T16:04:19;24.87;;;16.70;;
54897;SDS011;40800;52.704;6.398;2023-02-01T16:06:53;25.73;;;18.15;;
54897;SDS011;40800;52.704;6.398;2023-02-01T16:09:21;26.58;;;17.70;;
54897;SDS011;40800;52.704;6.398;2023-02-01T16:12:22;25.55;;;18.58;;
54897;SDS011;40800;52.704;6.398;2023-02-01T16:14:57;25.48;;;18.02;;
54897;SDS011;40800;52.704;6.398;2023-02-01T16:17:22;24.42;;;18.38;;
54897;SDS011;40800;52.704;6.398;2023-02-01T16:19:48;24.92;;;17.88;;
54897;SDS011;40800;52.704;6.398;2023-02-01T16:22:14;26.33;;;19.25;;
54897;SDS011;40800;52.704;6.398;2023-02-01T16:24:39;28.42;;;18.80;;
54897;SDS011;40800;52.704;6.398;2023-02-01T16:27:05;25.98;;;17.90;;
54897;SDS011;40800;52.704;6.398;2023-02-01T16:29:32;26.92;;;18.10;;
54897;SDS011;40800;52.704;6.398;2023-02-01T16:31:58;31.38;;;19.23;;
54897;SDS011;40800;52.704;6.398;2023-02-01T16:34:24;26.85;;;19.13;;
54897;SDS011;40800;52.704;6.398;2023-02-01T16:36:50;28.73;;;19.10;;
54897;SDS011;40800;52.704;6.398;2023-02-01T16:39:17;27.40;;;19.48;;
54897;SDS011;40800;52.704;6.398;2023-02-01T16:41:44;29.00;;;19.60;;
54897;SDS011;40800;52.704;6.398;2023-02-01T16:44:12;24.10;;;21.08;;
54897;SDS011;40800;52.704;6.398;2023-02-01T16:46:39;28.45;;;20.20;;
54897;SDS011;40800;52.704;6.398;2023-02-01T16:49:28;31.92;;;21.83;;
54897;SDS011;40800;52.704;6.398;2023-02-01T16:51:55;24.38;;;21.42;;
54897;SDS011;40800;52.704;6.398;2023-02-01T16:54:23;32.65;;;21.48;;
54897;SDS011;40800;52.704;6.398;2023-02-01T16:56:48;28.70;;;21.70;;
54897;SDS011;40800;52.704;6.398;2023-02-01T16:59:14;30.40;;;21.05;;
54897;SDS011;40800;52.704;6.398;2023-02-01T17:01:40;30.08;;;21.73;;
54897;SDS011;40800;52.704;6.398;2023-02-01T17:04:07;24.95;;;21.17;;
54897;SDS011;40800;52.704;6.398;2023-02-01T17:06:34;23.98;;;20.52;;
54897;SDS011;40800;52.704;6.398;2023-02-01T17:09:01;25.55;;;20.63;;
54897;SDS011;40800;52.704;6.398;2023-02-01T17:11:29;25.80;;;21.63;;
54897;SDS011;40800;52.704;6.398;2023-02-01T17:13:56;31.65;;;21.90;;
54897;SDS011;40800;52.704;6.398;2023-02-01T17:18:59;32.78;;;20.95;;
54897;SDS011;40800;52.704;6.398;2023-02-01T17:21:29;29.20;;;22.63;;
54897;SDS011;40800;52.704;6.398;2023-02-01T17:23:59;28.38;;;22.52;;
54897;SDS011;40800;52.704;6.398;2023-02-01T17:26:26;27.67;;;22.15;;
54897;SDS011;40800;52.704;6.398;2023-02-01T17:28:51;30.60;;;21.88;;
54897;SDS011;40800;52.704;6.398;2023-02-01T17:31:17;32.38;;;22.20;;
54897;SDS011;40800;52.704;6.398;2023-02-01T17:33:43;28.17;;;22.00;;
54897;SDS011;40800;52.704;6.398;2023-02-01T17:36:13;27.88;;;21.25;;
54897;SDS011;40800;52.704;6.398;2023-02-01T17:38:41;29.92;;;22.15;;
54897;SDS011;40800;52.704;6.398;2023-02-01T17:41:10;30.63;;;21.67;;
54897;SDS011;40800;52.704;6.398;2023-02-01T17:43:37;25.85;;;20.00;;
54897;SDS011;40800;52.704;6.398;2023-02-01T17:46:05;30.88;;;19.67;;